Time;durP1;ratioP1;P1;durP2;ratioP2;P2;SDS_P1;SDS_P2;PMS_P1;PMS_P2;Temp;Humidity;BMP_temperature;BMP_pressure;BME280_temperature;BME280_humidity;BME280_pressure;Samples;Min_cycle;Max_cycle;Signal;HPM_P1;HPM_P2
2021/05/13 08:19:03;;;;;;;;;;;;;;;13.52;62.31;98746.91;6229001;22;19997;-86
2021/05/13 08:21:29;;;;;;;;;;;;;;;13.51;62.77;98743.38;6243917;23;19915;-85
2021/05/13 08:23:54;;;;;;;;;;;;;;;13.53;62.59;98741.47;6243265;23;19927;-85
2021/05/13 08:26:19;;;;;;;;;;;;;;;13.53;62.34;98748.56;6242455;23;19965;-85
2021/05/13 08:28:45;;;;;;;;;;;;;;;13.53;62.51;98736.16;6243205;23;19922;-84
2021/05/13 08:31:10;;;;;;;;;;;;;;;13.54;62.72;98740.47;6216607;23;20287;-85
2021/05/13 08:33:35;;;;;;;;;;;;;;;13.54;62.63;98748.47;6242349;23;19915;-84
2021/05/13 08:36:01;;;;;;;;;;;;;;;13.56;62.61;98756.34;6216885;23;19911;-83
2021/05/13 08:38:26;;;;;;;;;;;;;;;13.56;62.63;98743.03;6216264;23;20307;-83
2021/05/13 08:40:52;;;;;;;;;;;;;;;13.56;62.80;98745.69;6242721;23;19938;-84
2021/05/13 08:43:27;;;;;;;;;;;;;;;13.58;62.54;98754.44;6240843;23;19915;-85
2021/05/13 08:45:55;;;;;;;;;;;;;;;13.57;62.46;98753.56;6241425;23;19947;-85
2021/05/13 08:48:25;;;;;;;;;;;;;;;13.59;62.55;98751.69;6241660;23;19923;-87
2021/05/13 08:50:51;;;;;;;;;;;;;;;13.58;62.29;98757.09;6216658;23;20112;-86
2021/05/13 08:53:16;;;;;;;;;;;;;;;13.60;62.51;98758.69;6214899;23;19963;-86
2021/05/13 08:55:42;;;;;;;;;;;;;;;13.61;62.52;98760.38;6241637;23;19982;-86
2021/05/13 08:58:07;;;;;;;;;;;;;;;13.61;62.50;98748.91;6240721;23;19915;-85
2021/05/13 09:00:33;;;;;;;;;;;;;;;13.63;62.26;98755.81;6240980;23;19920;-85
2021/05/13 09:02:59;;;;;;;;;;;;;;;13.64;62.37;98756.63;6242651;23;20394;-84
2021/05/13 09:05:24;;;;;;;;;;;;;;;13.66;62.38;98761.84;6243792;23;20097;-85
2021/05/13 09:07:52;;;;;;;;;;;;;;;13.66;62.36;98756.53;6214877;23;20200;-85
2021/05/13 09:10:17;;;;;;;;;;;;;;;13.66;62.18;98756.53;6241663;23;19974;-85
2021/05/13 09:12:50;;;;;;;;;;;;;;;13.66;62.25;98746.75;6245099;23;19916;-86
2021/05/13 09:15:20;;;;;;;;;;;;;;;13.66;62.42;98751.22;6245497;23;19962;-84
2021/05/13 09:18:00;;;;;;;;;;;;;;;13.70;62.42;98758.03;6245624;23;19977;-87
2021/05/13 09:20:28;;;;;;;;;;;;;;;13.68;62.34;98754.63;6244888;23;20292;-86
2021/05/13 09:23:09;;;;;;;;;;;;;;;13.68;62.42;98750.16;6246427;23;19977;-86
2021/05/13 09:25:35;;;;;;;;;;;;;;;13.67;62.29;98758.25;6244552;23;19973;-84
2021/05/13 09:28:01;;;;;;;;;;;;;;;13.67;62.25;98755.59;6219251;23;19923;-84
2021/05/13 09:30:29;;;;;;;;;;;;;;;13.68;62.43;98758.13;6245657;23;19916;-85
2021/05/13 09:33:01;;;;;;;;;;;;;;;13.70;62.37;98747.38;6244619;23;19919;-85
2021/05/13 09:35:28;;;;;;;;;;;;;;;13.69;62.42;98743.88;6245463;23;19915;-85
2021/05/13 09:37:54;;;;;;;;;;;;;;;13.71;62.44;98754.41;6218430;23;19970;-85
2021/05/13 09:40:32;;;;;;;;;;;;;;;13.71;62.61;98754.41;6243975;23;19915;-84
2021/05/13 09:43:11;;;;;;;;;;;;;;;13.70;62.57;98752.69;6244264;23;19915;-84
2021/05/13 09:45:41;;;;;;;;;;;;;;;13.70;62.79;98753.53;6217872;23;20339;-83
2021/05/13 09:48:07;;;;;;;;;;;;;;;13.72;62.72;98745.44;6243890;23;19927;-83
2021/05/13 09:50:38;;;;;;;;;;;;;;;13.72;62.79;98756.09;6245354;23;20204;-83
2021/05/13 09:53:04;;;;;;;;;;;;;;;13.74;62.69;98741.72;6246036;23;20292;-88
2021/05/13 09:55:30;;;;;;;;;;;;;;;13.74;62.62;98754.19;6218991;23;19915;-83
2021/05/13 09:58:01;;;;;;;;;;;;;;;13.76;62.75;98752.25;6244342;23;20308;-84
2021/05/13 10:00:29;;;;;;;;;;;;;;;13.77;62.68;98753.97;6217527;23;20371;-84
2021/05/13 10:02:55;;;;;;;;;;;;;;;13.79;62.57;98747.56;6244143;23;19926;-84
2021/05/13 10:05:20;;;;;;;;;;;;;;;13.77;62.70;98759.31;6248221;22;19915;-84
2021/05/13 10:07:46;;;;;;;;;;;;;;;13.79;62.56;98760.03;6275471;22;19925;-84
2021/05/13 10:10:11;;;;;;;;;;;;;;;13.78;62.55;98751.16;6275113;22;19939;-84
2021/05/13 10:12:36;;;;;;;;;;;;;;;13.77;62.58;98753.97;6248371;22;19916;-83
2021/05/13 10:15:02;;;;;;;;;;;;;;;13.76;62.66;98753.09;6275534;22;19915;-85
2021/05/13 10:17:28;;;;;;;;;;;;;;;13.77;62.73;98748.66;6276220;22;20191;-84
2021/05/13 10:19:54;;;;;;;;;;;;;;;13.78;62.79;98751.16;6249801;22;19916;-83
2021/05/13 10:22:20;;;;;;;;;;;;;;;13.79;62.73;98749.38;6248932;22;19915;-85
2021/05/13 10:24:46;;;;;;;;;;;;;;;13.78;62.68;98750.31;6276996;22;20260;-87
2021/05/13 10:27:15;;;;;;;;;;;;;;;13.78;62.92;98742.34;6275103;22;19916;-85
2021/05/13 10:29:41;;;;;;;;;;;;;;;13.79;62.80;98750.22;6274894;22;19915;-85
2021/05/13 10:32:14;;;;;;;;;;;;;;;13.78;63.00;98745.84;6275485;22;19939;-84
2021/05/13 10:34:57;;;;;;;;;;;;;;;13.78;62.92;98743.19;6274314;22;20468;-84
2021/05/13 10:37:37;;;;;;;;;;;;;;;13.80;63.07;98738.63;6274614;22;20412;-84
2021/05/13 10:40:12;;;;;;;;;;;;;;;13.79;62.94;98736.91;6248282;22;19919;-84
2021/05/13 10:42:38;;;;;;;;;;;;;;;13.80;63.03;98743.06;6275144;22;19965;-84
2021/05/13 10:45:22;;;;;;;;;;;;;;;13.79;62.88;98739.56;6248233;22;19919;-84
2021/05/13 10:48:07;;;;;;;;;;;;;;;13.80;63.17;98738.63;6248798;22;19926;-84
2021/05/13 10:51:10;;;;;;;;;;;;;;;13.80;63.05;98740.41;6248291;22;20185;-83
2021/05/13 10:56:21;;;;;;;;;;;;;;;13.84;63.10;98743.72;6256426;22;20472;-84
2021/05/13 10:58:58;;;;;;;;;;;;;;;13.81;63.18;98742.97;6249321;22;19977;-86
2021/05/13 11:01:23;;;;;;;;;;;;;;;13.83;63.30;98755.31;6255046;22;19915;-85
2021/05/13 11:04:08;;;;;;;;;;;;;;;13.82;63.37;98741.16;6251029;22;19915;-82
2021/05/13 11:06:43;;;;;;;;;;;;;;;13.81;63.53;98744.78;6276217;22;19977;-85
2021/05/13 11:09:08;;;;;;;;;;;;;;;13.81;63.59;98750.09;6276246;22;19915;-85
2021/05/13 11:11:54;;;;;;;;;;;;;;;13.82;63.73;98746.50;6276416;22;19954;-85
